.
WxDataArchive / Data Records for 2010-12-08
2010-12-07 December 2010 2010-12-09

Data Records for Wednesday, 08 December 2010

Time	Temp	Chill	HIndex	Humid	Dewpt	 Wind 	HiWind	WindDir	Rain 	Barom 
-----	----	-----	------	-----	-----	------	------	-------	-----	----- 
00:00	14.3	14.3	14.3	74	7.6	0	1	248	0.00	30.188 
00:05	14.1	14.1	14.1	74	7.4	0	0	---	0.00	30.188 
00:10	14.0	14.0	14.0	75	7.6	0	1	248	0.00	30.188 
00:15	14.0	14.0	14.0	75	7.6	0	1	248	0.00	30.186 
00:20	13.8	13.8	13.8	75	7.4	0	1	248	0.00	30.186 
00:25	13.8	13.8	13.8	75	7.4	0	1	248	0.00	30.186 
00:30	14.0	14.0	14.0	76	7.9	0	1	248	0.00	30.186 
00:35	14.0	14.0	14.0	76	7.9	0	2	248	0.00	30.186 
00:40	14.0	14.0	14.0	76	7.9	0	2	248	0.00	30.186 
00:45	13.8	13.8	13.8	76	7.7	0	2	248	0.00	30.187 
00:50	13.8	13.8	13.8	76	7.7	0	2	248	0.00	30.187 
00:55	13.8	13.8	13.8	76	7.7	0	2	248	0.00	30.187 
01:00	14.0	14.0	14.0	77	8.1	0	2	248	0.00	30.182 
01:05	14.1	14.1	14.1	77	8.2	0	2	248	0.00	30.182 
01:10	14.1	14.1	14.1	77	8.2	0	3	248	0.00	30.182 
01:15	14.3	14.3	14.3	77	8.4	1	2	248	0.00	30.178 
01:20	14.4	14.4	14.4	77	8.5	1	4	248	0.00	30.178 
01:25	14.4	14.4	14.4	77	8.5	1	3	248	0.00	30.178 
01:30	14.6	14.6	14.6	78	9.0	0	3	248	0.00	30.175 
01:35	14.6	14.6	14.6	78	9.0	1	3	248	0.00	30.175 
01:40	14.8	14.8	14.8	78	9.2	1	5	248	0.00	30.175 
01:45	14.8	14.8	14.8	78	9.2	0	2	248	0.00	30.174 
01:50	14.8	14.8	14.8	78	9.2	1	4	248	0.00	30.174 
01:55	14.9	14.9	14.9	79	9.6	1	3	248	0.00	30.174 
02:00	14.9	14.9	14.9	79	9.6	1	3	248	0.00	30.173 
02:05	15.1	15.1	15.1	79	9.8	1	4	248	0.00	30.173 
02:10	15.2	15.2	15.2	79	9.9	1	5	248	0.00	30.173 
02:15	15.4	15.4	15.4	79	10.1	1	3	248	0.00	30.173 
02:20	15.6	15.6	15.6	79	10.3	1	4	248	0.00	30.173 
02:25	15.7	15.7	15.7	79	10.4	1	3	248	0.00	30.173 
02:30	15.9	15.9	15.9	79	10.6	1	3	248	0.00	30.171 
02:35	16.1	16.1	16.1	79	10.8	1	3	248	0.00	30.171 
02:40	16.2	16.2	16.2	79	10.9	1	3	248	0.00	30.171 
02:45	16.4	16.4	16.4	79	11.0	0	3	248	0.00	30.172 
02:50	16.5	16.5	16.5	79	11.1	0	3	248	0.00	30.172 
02:55	16.7	16.7	16.7	79	11.3	1	4	270	0.00	30.172 
03:00	16.9	16.9	16.9	79	11.5	1	3	270	0.00	30.171 
03:05	17.0	17.0	17.0	79	11.6	0	2	248	0.00	30.171 
03:10	17.2	17.2	17.2	79	11.8	1	4	270	0.00	30.171 
03:15	17.2	17.2	17.2	78	11.5	1	3	248	0.00	30.171 
03:20	17.3	17.3	17.3	78	11.6	1	3	270	0.00	30.171 
03:25	17.3	17.3	17.3	78	11.6	1	4	270	0.00	30.171 
03:30	17.3	17.3	17.3	78	11.6	1	3	248	0.00	30.170 
03:35	17.3	17.3	17.3	78	11.6	1	5	248	0.00	30.170 
03:40	17.3	17.3	17.3	77	11.3	1	3	248	0.00	30.170 
03:45	17.5	17.5	17.5	77	11.5	2	5	248	0.00	30.171 
03:50	17.3	17.3	17.3	77	11.3	2	4	248	0.00	30.171 
03:55	17.5	17.5	17.5	77	11.5	1	3	248	0.00	30.171 
04:00	17.3	17.3	17.3	77	11.3	1	4	248	0.00	30.168 
04:05	17.3	17.3	17.3	77	11.3	1	4	270	0.00	30.168 
04:10	17.3	17.3	17.3	77	11.3	1	4	248	0.00	30.168 
04:15	17.5	17.5	17.5	77	11.5	1	4	248	0.00	30.169 
04:20	17.5	17.5	17.5	77	11.5	1	3	270	0.00	30.169 
04:25	17.5	17.5	17.5	77	11.5	1	2	270	0.00	30.169 
04:30	17.5	17.5	17.5	77	11.5	1	3	248	0.00	30.165 
04:35	17.3	17.3	17.3	77	11.3	1	5	248	0.00	30.165 
04:40	17.3	17.3	17.3	77	11.3	2	7	248	0.00	30.165 
04:45	17.3	17.3	17.3	77	11.3	1	5	248	0.00	30.167 
04:50	17.3	17.3	17.3	77	11.3	1	6	248	0.00	30.167 
04:55	17.3	17.3	17.3	77	11.3	1	6	248	0.00	30.167 
05:00	17.3	17.3	17.3	77	11.3	1	4	270	0.00	30.170 
05:05	17.2	17.2	17.2	77	11.3	1	3	248	0.00	30.170 
05:10	17.2	17.2	17.2	76	11.0	1	3	248	0.00	30.170 
05:15	17.2	17.2	17.2	77	11.3	1	3	248	0.00	30.170 
05:20	17.2	17.2	17.2	77	11.3	1	5	248	0.00	30.170 
05:25	17.2	17.2	17.2	77	11.3	1	4	248	0.00	30.170 
05:30	17.2	17.2	17.2	77	11.3	1	4	248	0.00	30.168 
05:35	17.2	17.2	17.2	76	11.0	1	4	248	0.00	30.168 
05:40	16.9	16.9	16.9	76	10.7	2	6	248	0.00	30.168 
05:45	16.7	16.7	16.7	76	10.5	2	5	248	0.00	30.171 
05:50	16.5	16.5	16.5	76	10.3	1	3	248	0.00	30.171 
05:55	16.4	16.4	16.4	76	10.2	1	3	248	0.00	30.171 
06:00	16.2	16.2	16.2	76	10.0	1	3	248	0.00	30.174 
06:05	15.9	15.9	15.9	76	9.7	1	4	248	0.00	30.174 
06:10	15.6	15.6	15.6	76	9.4	2	4	270	0.00	30.174 
06:15	15.2	15.2	15.2	76	9.0	2	4	225	0.00	30.177 
06:20	15.1	15.1	15.1	76	8.9	0	2	292	0.00	30.177 
06:25	14.8	14.8	14.8	76	8.6	0	3	248	0.00	30.177 
06:30	14.6	14.6	14.6	77	8.7	1	3	248	0.00	30.178 
06:35	14.4	14.4	14.4	77	8.5	1	3	248	0.00	30.178 
06:40	14.4	14.4	14.4	77	8.5	1	3	248	0.00	30.178 
06:45	14.4	14.4	14.4	77	8.5	1	4	248	0.00	30.184 
06:50	14.4	14.4	14.4	77	8.5	1	4	270	0.00	30.184 
06:55	14.4	14.4	14.4	77	8.5	2	3	248	0.00	30.184 
07:00	14.4	14.4	14.4	77	8.5	2	4	270	0.00	30.193 
07:05	14.3	14.3	14.3	77	8.4	2	5	248	0.00	30.193 
07:10	14.1	14.1	14.1	77	8.2	1	4	225	0.00	30.193 
07:15	14.0	14.0	14.0	76	7.9	1	3	248	0.00	30.197 
07:20	13.8	13.8	13.8	76	7.7	1	3	248	0.00	30.197 
07:25	13.8	13.8	13.8	76	7.7	2	4	248	0.00	30.197 
07:30	13.6	13.6	13.6	76	7.5	1	5	248	0.00	30.197 
07:35	13.5	13.5	13.5	76	7.4	1	4	248	0.00	30.197 
07:40	13.5	13.5	13.5	76	7.4	1	5	248	0.00	30.197 
07:45	13.3	13.3	13.3	76	7.2	1	4	225	0.00	30.197 
07:50	13.1	13.1	13.1	76	7.0	2	4	248	0.00	30.197 
07:55	13.1	13.1	13.1	75	6.7	2	5	248	0.00	30.197 
08:00	12.9	12.9	12.9	75	6.5	2	7	248	0.00	30.198 
08:05	12.9	12.9	12.9	75	6.5	1	4	248	0.00	30.198 
08:10	13.1	13.1	13.1	75	6.7	1	2	225	0.00	30.198 
08:15	13.1	13.1	13.1	75	6.7	1	2	225	0.00	30.201 
08:20	13.1	13.1	13.1	75	6.7	0	3	225	0.00	30.201 
08:25	13.1	13.1	13.1	74	6.4	1	5	225	0.00	30.201 
08:30	13.1	13.1	13.1	74	6.4	1	5	225	0.00	30.205 
08:35	13.3	13.3	13.3	74	6.6	1	3	248	0.00	30.205 
08:40	13.3	13.3	13.3	73	6.3	1	3	248	0.00	30.205 
08:45	13.3	13.3	13.3	73	6.3	1	3	248	0.00	30.211 
08:50	13.5	13.5	13.5	72	6.2	1	4	248	0.00	30.211 
08:55	13.5	13.5	13.5	72	6.2	1	2	248	0.00	30.211 
09:00	13.6	13.6	13.6	71	6.0	1	3	270	0.00	30.212 
09:05	13.8	13.8	13.8	71	6.2	1	4	248	0.00	30.212 
09:10	14.1	14.1	14.1	70	6.1	1	3	248	0.00	30.212 
09:15	14.3	14.3	14.3	69	6.0	1	5	248	0.00	30.219 
09:20	14.4	14.4	14.4	68	5.8	2	6	248	0.00	30.219 
09:25	14.8	14.8	14.8	67	5.9	1	4	248	0.00	30.219 
09:30	15.1	15.1	15.1	67	6.1	0	2	248	0.00	30.222 
09:35	15.2	15.2	15.2	66	5.9	1	3	248	0.00	30.222 
09:40	15.6	15.6	15.6	65	6.0	1	5	248	0.00	30.222 
09:45	15.7	15.7	15.7	65	6.1	1	3	248	0.00	30.224 
09:50	15.9	15.9	15.9	64	5.9	1	3	248	0.00	30.224 
09:55	16.2	16.2	16.2	64	6.2	1	2	248	0.00	30.224 
10:00	16.4	16.4	16.4	63	6.0	2	4	248	0.00	30.220 
10:05	16.7	16.7	16.7	62	6.0	1	4	248	0.00	30.220 
10:10	17.3	17.3	17.3	62	6.5	2	5	225	0.00	30.220 
10:15	18.0	18.0	18.0	60	6.5	1	3	270	0.00	30.222 
10:20	18.4	18.4	18.4	59	6.5	1	3	225	0.00	30.222 
10:25	18.9	18.9	18.9	59	7.0	0	3	225	0.00	30.222 
10:30	19.2	19.2	19.2	58	6.9	1	3	225	0.00	30.224 
10:35	19.5	19.5	19.5	57	6.8	1	4	225	0.00	30.224 
10:40	19.5	19.5	19.5	57	6.8	1	4	248	0.00	30.224 
10:45	19.5	19.5	19.5	57	6.8	1	5	248	0.00	30.220 
10:50	19.4	19.4	19.4	57	6.7	1	4	248	0.00	30.220 
10:55	19.4	19.4	19.4	56	6.3	2	5	248	0.00	30.220 
11:00	19.4	19.4	19.4	56	6.3	2	5	248	0.00	30.215 
11:05	19.7	19.7	19.7	56	6.6	2	5	248	0.00	30.215 
11:10	20.0	20.0	20.0	56	6.9	1	4	270	0.00	30.215 
11:15	20.2	20.2	20.2	55	6.7	1	7	248	0.00	30.216 
11:20	20.5	20.5	20.5	56	7.3	1	3	248	0.00	30.216 
11:25	20.8	20.8	20.8	55	7.2	1	5	248	0.00	30.216 
11:30	21.1	21.1	21.1	55	7.5	2	5	248	0.00	30.212 
11:35	21.3	21.3	21.3	55	7.7	2	6	248	0.00	30.212 
11:40	21.4	21.4	21.4	55	7.8	2	6	248	0.00	30.212 
11:45	21.6	21.6	21.6	56	8.4	2	4	248	0.00	30.214 
11:50	21.4	21.4	21.4	56	8.2	2	5	248	0.00	30.214 
11:55	21.6	21.6	21.6	58	9.1	2	4	270	0.00	30.214 
12:00	21.6	21.6	21.6	58	9.1	1	3	248	0.00	30.210 
12:05	21.9	21.9	21.9	59	9.8	2	5	248	0.00	30.210 
12:10	22.1	22.1	22.1	60	10.4	1	4	292	0.00	30.210 
12:15	22.1	22.1	22.1	60	10.4	2	3	270	0.00	30.208 
12:20	22.1	22.1	22.1	61	10.7	2	5	270	0.00	30.208 
12:25	22.2	22.2	22.2	61	10.8	2	4	248	0.00	30.208 
12:30	22.4	22.4	22.4	62	11.4	1	5	248	0.00	30.203 
12:35	22.5	22.5	22.5	62	11.5	2	3	248	0.00	30.203 
12:40	22.7	22.7	22.7	62	11.7	2	4	270	0.00	30.203 
12:45	22.5	22.5	22.5	62	11.5	2	4	248	0.00	30.200 
12:50	22.5	22.5	22.5	62	11.5	2	5	248	0.00	30.200 
12:55	22.4	22.4	22.4	62	11.4	2	5	270	0.00	30.200 
13:00	22.4	22.4	22.4	63	11.7	2	4	270	0.00	30.197 
13:05	22.4	22.4	22.4	63	11.7	2	4	270	0.00	30.197 
13:10	22.4	22.4	22.4	63	11.7	2	4	248	0.00	30.197 
13:15	22.4	22.4	22.4	63	11.7	2	4	248	0.00	30.199 
13:20	22.4	22.4	22.4	63	11.7	2	5	270	0.00	30.199 
13:25	22.1	22.1	22.1	64	11.8	2	5	270	0.00	30.199 
13:30	21.9	21.9	21.9	64	11.6	2	3	270	0.00	30.199 
13:35	22.1	22.1	22.1	65	12.2	1	3	248	0.00	30.199 
13:40	22.1	22.1	22.1	65	12.2	2	3	248	0.00	30.199 
13:45	21.9	21.9	21.9	65	12.0	1	3	270	0.00	30.196 
13:50	21.8	21.8	21.8	65	11.9	2	4	248	0.00	30.196 
13:55	21.9	21.9	21.9	65	12.0	2	3	248	0.00	30.196 
14:00	21.9	21.9	21.9	66	12.3	2	5	248	0.00	30.191 
14:05	22.2	22.2	22.2	66	12.6	1	4	248	0.00	30.191 
14:10	22.5	22.5	22.5	66	12.9	1	3	248	0.00	30.191 
14:15	22.9	22.9	22.9	66	13.3	1	3	248	0.00	30.186 
14:20	23.2	23.2	23.2	66	13.6	1	4	248	0.00	30.186 
14:25	23.5	23.5	23.5	67	14.2	2	4	248	0.00	30.186 
14:30	23.6	23.6	23.6	66	13.9	2	6	248	0.00	30.185 
14:35	24.1	24.1	24.1	67	14.8	1	4	270	0.00	30.185 
14:40	24.7	24.7	24.7	67	15.3	1	3	270	0.00	30.185 
14:45	24.8	24.8	24.8	65	14.7	2	4	248	0.00	30.186 
14:50	24.5	24.5	24.5	65	14.4	2	3	292	0.00	30.186 
14:55	24.2	24.2	24.2	65	14.2	2	4	270	0.00	30.186 
15:00	24.1	24.1	24.1	65	14.1	1	4	248	0.00	30.191 
15:05	23.9	23.9	23.9	66	14.2	2	4	248	0.00	30.191 
15:10	23.9	23.9	23.9	66	14.2	1	3	248	0.00	30.191 
15:15	23.9	23.9	23.9	67	14.6	1	4	248	0.00	30.201 
15:20	24.1	24.1	24.1	67	14.8	2	4	248	0.00	30.201 
15:25	24.1	24.1	24.1	68	15.1	1	5	225	0.00	30.201 
15:30	24.4	24.4	24.4	69	15.7	1	3	248	0.00	30.202 
15:35	24.5	24.5	24.5	69	15.8	1	3	292	0.00	30.202 
15:40	24.5	24.5	24.5	69	15.8	2	4	292	0.00	30.202 
15:45	24.5	24.5	24.5	70	16.1	2	3	270	0.00	30.203 
15:50	24.5	24.5	24.5	70	16.1	1	3	248	0.00	30.203 
15:55	24.5	24.5	24.5	70	16.1	0	2	248	0.00	30.203 
16:00	24.5	24.5	24.5	71	16.5	1	3	248	0.00	30.208 
16:05	24.5	24.5	24.5	71	16.5	1	5	248	0.00	30.208 
16:10	24.5	24.5	24.5	71	16.5	0	2	248	0.00	30.208 
16:15	24.5	24.5	24.5	72	16.8	1	2	248	0.00	30.214 
16:20	24.5	24.5	24.5	72	16.8	1	3	248	0.00	30.214 
16:25	24.5	24.5	24.5	72	16.8	2	4	248	0.00	30.214 
16:30	24.4	24.4	24.4	72	16.7	1	3	248	0.00	30.220 
16:35	24.4	24.4	24.4	73	17.0	1	4	248	0.00	30.220 
16:40	24.4	24.4	24.4	73	17.0	1	3	248	0.00	30.220 
16:45	24.2	24.2	24.2	73	16.8	0	2	248	0.00	30.223 
16:50	24.1	24.1	24.1	73	16.7	2	5	248	0.00	30.223 
16:55	23.9	23.9	23.9	73	16.5	1	3	225	0.00	30.223 
17:00	23.8	23.8	23.8	74	16.7	1	3	225	0.00	30.224 
17:05	23.6	23.6	23.6	74	16.6	1	4	225	0.00	30.224 
17:10	23.6	23.6	23.6	75	16.9	2	5	248	0.00	30.224 
17:15	23.6	23.6	23.6	75	16.9	1	3	248	0.00	30.228 
17:20	23.6	23.6	23.6	76	17.2	1	2	248	0.00	30.228 
17:25	23.6	23.6	23.6	76	17.2	1	3	225	0.00	30.228 
17:30	23.6	23.6	23.6	76	17.2	1	3	248	0.00	30.236 
17:35	23.6	23.6	23.6	76	17.2	1	3	248	0.00	30.236 
17:40	23.5	23.5	23.5	76	17.1	1	4	225	0.00	30.236 
17:45	23.5	23.5	23.5	76	17.1	1	3	270	0.00	30.242 
17:50	23.3	23.3	23.3	77	17.2	1	2	270	0.00	30.242 
17:55	23.3	23.3	23.3	77	17.2	1	5	248	0.00	30.242 
18:00	23.2	23.2	23.2	77	17.1	1	4	248	0.00	30.247 
18:05	23.2	23.2	23.2	77	17.1	1	3	225	0.00	30.247 
18:10	23.0	23.0	23.0	77	16.9	1	3	248	0.00	30.247 
18:15	23.0	23.0	23.0	77	16.9	1	4	248	0.00	30.252 
18:20	23.0	23.0	23.0	77	16.9	1	4	248	0.00	30.252 
18:25	22.9	22.9	22.9	77	16.8	1	5	248	0.00	30.252 
18:30	22.9	22.9	22.9	77	16.8	1	4	248	0.00	30.252 
18:35	22.9	22.9	22.9	77	16.8	1	4	248	0.00	30.252 
18:40	22.7	22.7	22.7	77	16.6	1	4	248	0.00	30.252 
18:45	22.7	22.7	22.7	77	16.6	1	3	248	0.00	30.254 
18:50	22.7	22.7	22.7	77	16.6	1	3	248	0.00	30.254 
18:55	22.5	22.5	22.5	76	16.1	1	4	248	0.00	30.254 
19:00	22.4	22.4	22.4	76	16.0	1	4	248	0.00	30.258 
19:05	22.2	22.2	22.2	76	15.8	2	5	248	0.00	30.258 
19:10	22.1	22.1	22.1	75	15.4	1	3	248	0.00	30.258 
19:15	22.1	22.1	22.1	76	15.7	1	5	248	0.00	30.265 
19:20	21.9	21.9	21.9	76	15.5	1	3	248	0.00	30.265 
19:25	21.9	21.9	21.9	76	15.5	1	4	248	0.00	30.265 
19:30	21.9	21.9	21.9	76	15.5	1	3	248	0.00	30.273 
19:35	21.8	21.8	21.8	76	15.4	1	3	248	0.00	30.273 
19:40	21.6	21.6	21.6	76	15.2	1	4	248	0.00	30.273 
19:45	21.6	21.6	21.6	76	15.2	1	3	248	0.00	30.271 
19:50	21.4	21.4	21.4	76	15.0	1	3	248	0.00	30.271 
19:55	21.3	21.3	21.3	76	14.9	1	3	248	0.00	30.271 
20:00	21.1	21.1	21.1	76	14.7	1	3	248	0.00	30.271 
20:05	21.0	21.0	21.0	76	14.6	2	4	248	0.00	30.271 
20:10	20.8	20.8	20.8	76	14.5	1	3	248	0.00	30.271 
20:15	20.8	20.8	20.8	76	14.5	1	3	248	0.00	30.277 
20:20	20.8	20.8	20.8	76	14.5	1	4	225	0.00	30.277 
20:25	20.6	20.6	20.6	76	14.3	1	2	225	0.00	30.277 
20:30	20.6	20.6	20.6	76	14.3	1	2	225	0.00	30.281 
20:35	20.5	20.5	20.5	77	14.5	1	3	225	0.00	30.281 
20:40	20.5	20.5	20.5	77	14.5	0	1	225	0.00	30.281 
20:45	20.5	20.5	20.5	77	14.5	1	2	225	0.00	30.285 
20:50	20.3	20.3	20.3	77	14.3	1	3	225	0.00	30.285 
20:55	20.3	20.3	20.3	77	14.3	1	2	225	0.00	30.285 
21:00	20.3	20.3	20.3	77	14.3	0	2	225	0.00	30.288 
21:05	20.3	20.3	20.3	77	14.3	1	2	225	0.00	30.288 
21:10	20.2	20.2	20.2	78	14.5	0	3	225	0.00	30.288 
21:15	20.2	20.2	20.2	78	14.5	0	2	225	0.00	30.286 
21:20	20.2	20.2	20.2	78	14.5	1	2	225	0.00	30.286 
21:25	20.2	20.2	20.2	78	14.5	0	2	225	0.00	30.286 
21:30	20.0	20.0	20.0	78	14.3	1	3	225	0.00	30.288 
21:35	20.0	20.0	20.0	78	14.3	1	3	248	0.00	30.288 
21:40	20.0	20.0	20.0	78	14.3	0	2	248	0.00	30.288 
21:45	19.9	19.9	19.9	79	14.5	0	2	248	0.00	30.288 
21:50	19.9	19.9	19.9	79	14.5	0	2	248	0.00	30.288 
21:55	19.7	19.7	19.7	79	14.3	0	2	248	0.00	30.288 
22:00	19.7	19.7	19.7	79	14.3	0	2	248	0.00	30.288 
22:05	19.7	19.7	19.7	79	14.3	0	1	248	0.00	30.288 
22:10	19.5	19.5	19.5	79	14.1	0	2	248	0.00	30.288 
22:15	19.5	19.5	19.5	80	14.4	0	1	248	0.00	30.282 
22:20	19.4	19.4	19.4	80	14.3	0	2	248	0.00	30.282 
22:25	19.4	19.4	19.4	80	14.3	0	1	248	0.00	30.282 
22:30	19.2	19.2	19.2	80	14.1	0	2	248	0.00	30.286 
22:35	19.1	19.1	19.1	80	14.0	0	2	248	0.00	30.286 
22:40	19.1	19.1	19.1	80	14.0	0	1	248	0.00	30.286 
22:45	18.9	18.9	18.9	80	13.8	0	0	---	0.00	30.284 
22:50	18.6	18.6	18.6	80	13.5	0	1	248	0.00	30.284 
22:55	18.4	18.4	18.4	80	13.3	0	0	---	0.00	30.284 
23:00	18.1	18.1	18.1	80	13.0	0	0	---	0.00	30.288 
23:05	18.0	18.0	18.0	80	12.9	0	1	248	0.00	30.288 
23:10	17.8	17.8	17.8	80	12.7	0	1	248	0.00	30.288 
23:15	17.5	17.5	17.5	80	12.4	0	1	248	0.00	30.284 
23:20	17.3	17.3	17.3	81	12.5	0	0	---	0.00	30.284 
23:25	17.2	17.2	17.2	81	12.4	0	0	---	0.00	30.284 
23:30	17.0	17.0	17.0	81	12.2	0	0	---	0.00	30.293 
23:35	16.9	16.9	16.9	81	12.1	0	0	---	0.00	30.293 
23:40	16.7	16.7	16.7	81	11.9	0	0	---	0.00	30.293 
23:45	16.4	16.4	16.4	81	11.6	0	0	---	0.00	30.297 
23:50	16.2	16.2	16.2	81	11.4	0	1	248	0.00	30.297 
23:55	16.1	16.1	16.1	82	11.6	0	0	---	0.00	30.297 

CoCoRaHS
IN-AL-39
A2 Web Hosting
Creative Commons License
GoDaddy
search engine by freefind advanced

loaded 2018-11-16 23:22:30 • last modified 2010-11-18 10:43:29
Privacy PolicyDisclaimer
• wx.awcolley.com is powered by PmWiki v.2002016 •
• all content (unless otherwise noted) © 2018 A W Colley